Time;durP1;ratioP1;P1;durP2;ratioP2;P2;SDS_P1;SDS_P2;PMS_P1;PMS_P2;Temp;Humidity;BMP_temperature;BMP_pressure;BME280_temperature;BME280_humidity;BME280_pressure;Samples;Min_cycle;Max_cycle;Signal;HPM_P1;HPM_P2
2023/07/24 00:00:30;;;;;;;5.28;4.05;;;;;;;;;;4977273;28;20034;-62
2023/07/24 00:02:56;;;;;;;5.22;3.80;;;;;;;;;;4976040;28;20031;-62
2023/07/24 00:05:25;;;;;;;4.25;3.85;;;;;;;;;;4976706;28;20498;-63
2023/07/24 00:07:51;;;;;;;4.43;3.87;;;;;;;;;;4976845;28;20035;-57
2023/07/24 00:10:16;;;;;;;5.60;4.00;;;;;;;;;;4977095;28;20661;-57
2023/07/24 00:12:41;;;;;;;4.18;3.58;;;;;;;;;;4975658;28;20045;-62
2023/07/24 00:15:07;;;;;;;4.53;3.75;;;;;;;;;;4976560;28;20023;-62
2023/07/24 00:17:32;;;;;;;4.18;3.55;;;;;;;;;;4976585;28;20031;-62
2023/07/24 00:19:58;;;;;;;6.00;3.70;;;;;;;;;;4976692;28;20022;-62
2023/07/24 00:22:23;;;;;;;4.35;3.50;;;;;;;;;;4976593;28;20046;-57
2023/07/24 00:25:09;;;;;;;3.95;3.58;;;;;;;;;;4976417;28;20042;-57
2023/07/24 00:27:34;;;;;;;4.43;4.03;;;;;;;;;;4959429;28;20101;-57
2023/07/24 00:30:01;;;;;;;3.95;3.47;;;;;;;;;;4959432;28;20133;-57
2023/07/24 00:32:26;;;;;;;4.28;3.38;;;;;;;;;;4976593;28;20031;-62
2023/07/24 00:34:51;;;;;;;5.15;3.50;;;;;;;;;;4976053;28;20046;-62
2023/07/24 00:37:17;;;;;;;3.75;3.40;;;;;;;;;;4998950;23;20050;-62
2023/07/24 00:39:49;;;;;;;5.72;3.30;;;;;;;;;;5028672;23;20125;-56
2023/07/24 00:42:14;;;;;;;3.85;3.53;;;;;;;;;;5031205;23;20054;-62
2023/07/24 00:44:39;;;;;;;3.65;3.20;;;;;;;;;;5039601;23;20084;-62
2023/07/24 00:47:05;;;;;;;3.40;3.10;;;;;;;;;;5005666;23;20058;-62
2023/07/24 00:49:30;;;;;;;3.53;3.22;;;;;;;;;;5037645;23;20058;-57
2023/07/24 00:51:56;;;;;;;3.60;3.30;;;;;;;;;;5023147;23;20058;-57
2023/07/24 00:54:27;;;;;;;3.78;3.47;;;;;;;;;;5007496;23;20009;-62
2023/07/24 00:56:52;;;;;;;6.38;3.67;;;;;;;;;;4988486;23;20038;-62
2023/07/24 00:59:27;;;;;;;3.90;3.58;;;;;;;;;;5017957;23;20030;-60
2023/07/24 01:01:52;;;;;;;4.47;3.47;;;;;;;;;;5029611;23;20054;-62
2023/07/24 01:04:18;;;;;;;4.50;4.10;;;;;;;;;;4995022;28;20034;-62
2023/07/24 01:06:43;;;;;;;3.70;3.42;;;;;;;;;;4977468;28;20039;-62
2023/07/24 01:09:09;;;;;;;4.00;3.70;;;;;;;;;;4977338;28;20026;-62
2023/07/24 01:11:40;;;;;;;4.50;3.58;;;;;;;;;;4977355;28;20019;-62
2023/07/24 01:14:23;;;;;;;5.65;3.65;;;;;;;;;;4994925;28;20031;-62
2023/07/24 01:16:49;;;;;;;4.30;3.75;;;;;;;;;;4978233;28;20449;-62
2023/07/24 01:19:30;;;;;;;5.43;4.03;;;;;;;;;;4995019;28;20022;-62
2023/07/24 01:22:02;;;;;;;4.05;3.75;;;;;;;;;;4994527;28;20034;-62
2023/07/24 01:24:36;;;;;;;6.07;3.40;;;;;;;;;;4977078;28;20541;-62
2023/07/24 01:27:02;;;;;;;4.53;3.70;;;;;;;;;;4994719;28;20060;-62
2023/07/24 01:29:27;;;;;;;3.90;3.60;;;;;;;;;;4977048;28;20026;-63
2023/07/24 01:31:52;;;;;;;4.45;3.83;;;;;;;;;;4994867;28;20030;-62
2023/07/24 01:34:18;;;;;;;4.13;3.72;;;;;;;;;;4976763;28;20038;-62
2023/07/24 01:36:45;;;;;;;4.65;3.90;;;;;;;;;;4994444;28;20061;-62
2023/07/24 01:39:11;;;;;;;4.97;3.60;;;;;;;;;;4976936;28;20532;-62
2023/07/24 01:41:36;;;;;;;3.50;3.15;;;;;;;;;;4995127;28;20105;-62
2023/07/24 01:44:02;;;;;;;4.07;3.67;;;;;;;;;;4994705;28;20108;-62
2023/07/24 01:46:27;;;;;;;4.15;3.75;;;;;;;;;;4994815;28;20102;-62
2023/07/24 01:48:52;;;;;;;4.30;3.90;;;;;;;;;;4994745;28;20133;-63
2023/07/24 01:51:20;;;;;;;5.13;3.88;;;;;;;;;;4976823;28;20117;-62
2023/07/24 01:53:45;;;;;;;3.92;3.53;;;;;;;;;;4977403;28;20046;-62
2023/07/24 01:56:10;;;;;;;5.43;4.18;;;;;;;;;;4977302;28;20386;-62
2023/07/24 01:58:36;;;;;;;4.63;4.18;;;;;;;;;;4977904;28;20103;-62
2023/07/24 02:01:01;;;;;;;4.32;3.92;;;;;;;;;;4983195;28;20049;-62
2023/07/24 02:03:26;;;;;;;4.38;3.97;;;;;;;;;;4983382;28;20046;-62
2023/07/24 02:05:52;;;;;;;4.57;4.10;;;;;;;;;;4983279;28;20034;-62
2023/07/24 02:08:17;;;;;;;4.57;4.18;;;;;;;;;;5001294;28;20022;-62
2023/07/24 02:10:42;;;;;;;4.90;4.03;;;;;;;;;;5001106;28;20370;-62
2023/07/24 02:13:09;;;;;;;6.95;4.00;;;;;;;;;;4983133;28;20076;-62
2023/07/24 02:15:34;;;;;;;4.60;4.20;;;;;;;;;;5001011;28;20022;-62
2023/07/24 02:18:00;;;;;;;6.55;4.22;;;;;;;;;;5000626;28;20035;-62
2023/07/24 02:20:25;;;;;;;5.53;4.00;;;;;;;;;;5000478;28;20105;-63
2023/07/24 02:22:50;;;;;;;4.63;4.13;;;;;;;;;;5000781;28;20157;-62
2023/07/24 02:25:16;;;;;;;4.22;3.83;;;;;;;;;;5000440;28;20030;-62
2023/07/24 02:27:41;;;;;;;4.40;4.00;;;;;;;;;;4982930;28;20037;-62
2023/07/24 02:30:07;;;;;;;7.13;4.25;;;;;;;;;;5000772;28;20081;-63
2023/07/24 02:32:34;;;;;;;5.28;4.32;;;;;;;;;;5000900;28;20026;-63
2023/07/24 02:34:59;;;;;;;6.45;4.20;;;;;;;;;;5000238;28;20455;-62
2023/07/24 02:37:24;;;;;;;5.97;4.25;;;;;;;;;;5000625;28;20106;-62
2023/07/24 02:39:51;;;;;;;5.30;4.15;;;;;;;;;;5000295;28;20026;-62
2023/07/24 02:42:17;;;;;;;5.75;4.07;;;;;;;;;;5000581;28;20026;-62
2023/07/24 02:44:43;;;;;;;4.97;4.13;;;;;;;;;;5000394;28;20512;-62
2023/07/24 02:47:08;;;;;;;4.93;4.43;;;;;;;;;;4983339;28;20038;-62
2023/07/24 02:49:34;;;;;;;4.78;3.95;;;;;;;;;;5000532;28;20065;-62
2023/07/24 02:51:59;;;;;;;9.18;4.70;;;;;;;;;;5000550;28;20034;-62
2023/07/24 02:54:25;;;;;;;8.07;4.40;;;;;;;;;;5000797;28;20030;-62
2023/07/24 02:56:51;;;;;;;5.15;4.30;;;;;;;;;;4983378;28;20010;-62
2023/07/24 02:59:17;;;;;;;7.53;4.40;;;;;;;;;;5000821;28;20030;-62
2023/07/24 03:01:42;;;;;;;5.63;4.63;;;;;;;;;;5000079;28;20196;-63
2023/07/24 03:04:08;;;;;;;6.53;4.57;;;;;;;;;;4983476;28;20030;-63
2023/07/24 03:06:33;;;;;;;8.77;4.95;;;;;;;;;;5000574;28;20042;-63
2023/07/24 03:08:58;;;;;;;6.80;4.38;;;;;;;;;;4982636;28;20034;-62
2023/07/24 03:11:24;;;;;;;7.70;4.93;;;;;;;;;;4997072;28;20109;-62
2023/07/24 03:13:49;;;;;;;7.07;3.67;;;;;;;;;;4997557;28;20026;-62
2023/07/24 03:16:17;;;;;;;5.00;4.60;;;;;;;;;;4979835;28;20038;-62
2023/07/24 03:18:42;;;;;;;5.20;4.40;;;;;;;;;;4997389;28;20478;-62
2023/07/24 03:21:08;;;;;;;7.72;4.20;;;;;;;;;;4979447;28;20097;-63
2023/07/24 03:23:33;;;;;;;4.63;4.15;;;;;;;;;;4997053;28;20050;-63
2023/07/24 03:25:59;;;;;;;6.55;4.30;;;;;;;;;;4996607;28;20049;-63
2023/07/24 03:28:25;;;;;;;5.47;4.22;;;;;;;;;;4997134;28;20065;-63
2023/07/24 03:30:50;;;;;;;5.57;4.32;;;;;;;;;;4997030;28;20529;-62
2023/07/24 03:33:16;;;;;;;5.80;4.50;;;;;;;;;;4979295;28;20062;-62
2023/07/24 03:35:41;;;;;;;5.78;4.63;;;;;;;;;;4996457;28;20031;-62
2023/07/24 03:38:07;;;;;;;5.53;3.70;;;;;;;;;;4979393;28;20022;-62
2023/07/24 03:40:32;;;;;;;5.50;3.63;;;;;;;;;;4996768;28;20026;-63
2023/07/24 03:42:58;;;;;;;8.23;3.90;;;;;;;;;;4996504;28;20462;-63
2023/07/24 03:45:23;;;;;;;6.28;3.70;;;;;;;;;;4996419;28;20038;-63
2023/07/24 03:47:48;;;;;;;3.78;3.47;;;;;;;;;;4996575;28;20022;-63
2023/07/24 03:50:14;;;;;;;4.78;3.92;;;;;;;;;;4979314;28;20034;-63
2023/07/24 03:52:39;;;;;;;6.97;3.70;;;;;;;;;;4996000;28;20030;-62
2023/07/24 03:55:05;;;;;;;3.92;3.55;;;;;;;;;;4995695;28;20461;-62
2023/07/24 03:57:30;;;;;;;7.45;3.92;;;;;;;;;;4994848;28;20038;-62
2023/07/24 03:59:56;;;;;;;4.65;4.00;;;;;;;;;;4995254;28;20026;-62
2023/07/24 04:02:21;;;;;;;5.30;3.90;;;;;;;;;;4995696;28;20473;-63
2023/07/24 04:04:47;;;;;;;5.97;4.70;;;;;;;;;;4996177;28;20474;-62
2023/07/24 04:07:12;;;;;;;5.75;4.13;;;;;;;;;;4995854;28;20121;-62
2023/07/24 04:09:38;;;;;;;4.97;4.18;;;;;;;;;;4995778;28;20030;-62
2023/07/24 04:12:03;;;;;;;6.80;4.72;;;;;;;;;;4995949;28;20042;-62
2023/07/24 04:14:29;;;;;;;8.48;4.60;;;;;;;;;;4977085;28;20030;-62
2023/07/24 04:16:55;;;;;;;9.43;4.60;;;;;;;;;;4995008;28;20033;-62
2023/07/24 04:19:20;;;;;;;7.78;4.15;;;;;;;;;;4995513;28;20369;-62
2023/07/24 04:21:46;;;;;;;6.88;4.50;;;;;;;;;;4995497;28;20035;-62
2023/07/24 04:24:11;;;;;;;5.80;4.28;;;;;;;;;;5005297;28;20018;-62
2023/07/24 04:26:36;;;;;;;5.53;4.25;;;;;;;;;;5015282;28;20030;-62
2023/07/24 04:29:02;;;;;;;5.32;4.30;;;;;;;;;;4997616;28;20104;-62
2023/07/24 04:31:27;;;;;;;9.45;4.68;;;;;;;;;;5014549;28;20022;-62
2023/07/24 04:33:52;;;;;;;8.80;4.78;;;;;;;;;;4997565;28;20535;-62
2023/07/24 04:36:18;;;;;;;7.10;4.65;;;;;;;;;;5014924;28;20036;-62
2023/07/24 04:38:43;;;;;;;7.05;4.43;;;;;;;;;;5014976;28;20401;-62
2023/07/24 04:41:08;;;;;;;7.20;3.78;;;;;;;;;;5014777;28;20465;-62
2023/07/24 04:43:34;;;;;;;5.65;4.20;;;;;;;;;;5013763;28;20072;-62
2023/07/24 04:45:59;;;;;;;4.65;3.92;;;;;;;;;;4994808;28;20031;-62
2023/07/24 04:48:24;;;;;;;7.22;3.97;;;;;;;;;;4994964;28;20030;-62
2023/07/24 04:50:53;;;;;;;4.43;4.03;;;;;;;;;;4994927;28;20109;-62
2023/07/24 04:53:19;;;;;;;6.13;4.10;;;;;;;;;;4994897;28;20092;-62
2023/07/24 04:55:45;;;;;;;5.70;4.18;;;;;;;;;;4994589;28;20027;-62
2023/07/24 04:58:10;;;;;;;6.50;4.05;;;;;;;;;;4977400;28;20126;-62
2023/07/24 05:00:36;;;;;;;6.22;4.90;;;;;;;;;;4994739;28;20109;-62
2023/07/24 05:03:01;;;;;;;7.38;4.80;;;;;;;;;;4994591;28;20453;-62
2023/07/24 05:05:26;;;;;;;6.72;4.10;;;;;;;;;;4994114;28;20122;-62
2023/07/24 05:07:52;;;;;;;7.35;5.30;;;;;;;;;;4994609;28;20049;-62
2023/07/24 05:10:17;;;;;;;5.03;4.43;;;;;;;;;;4994608;28;20045;-62
2023/07/24 05:12:43;;;;;;;5.80;4.82;;;;;;;;;;4994558;28;20073;-62
2023/07/24 05:15:08;;;;;;;4.93;4.43;;;;;;;;;;4994145;28;20386;-62
2023/07/24 05:17:34;;;;;;;4.85;4.13;;;;;;;;;;4994112;28;20049;-62
2023/07/24 05:19:59;;;;;;;4.63;3.92;;;;;;;;;;4994239;28;20165;-63
2023/07/24 05:22:25;;;;;;;5.25;3.92;;;;;;;;;;4989035;28;20019;-63
2023/07/24 05:24:50;;;;;;;6.10;4.30;;;;;;;;;;4986796;28;20470;-63
2023/07/24 05:27:15;;;;;;;5.45;4.15;;;;;;;;;;4993056;28;20474;-66
2023/07/24 05:29:41;;;;;;;5.00;4.53;;;;;;;;;;4957726;28;20117;-65
2023/07/24 05:32:06;;;;;;;6.93;5.32;;;;;;;;;;4981112;28;20037;-65
2023/07/24 05:34:32;;;;;;;5.10;4.60;;;;;;;;;;4981979;28;20446;-65
2023/07/24 05:36:57;;;;;;;6.35;4.72;;;;;;;;;;4993287;28;20113;-64
2023/07/24 05:39:22;;;;;;;7.93;5.05;;;;;;;;;;4993400;28;20042;-64
2023/07/24 05:41:48;;;;;;;6.10;5.15;;;;;;;;;;4991998;28;20014;-64
2023/07/24 05:44:14;;;;;;;6.63;4.78;;;;;;;;;;4990423;28;20018;-64
2023/07/24 05:46:39;;;;;;;6.15;4.70;;;;;;;;;;4990726;28;20070;-64
2023/07/24 05:49:05;;;;;;;8.02;4.75;;;;;;;;;;4974113;28;20026;-64
2023/07/24 05:51:31;;;;;;;5.90;4.70;;;;;;;;;;5008117;28;20041;-64
2023/07/24 05:53:56;;;;;;;6.45;5.00;;;;;;;;;;4992734;28;20030;-64
2023/07/24 05:56:21;;;;;;;5.45;4.50;;;;;;;;;;5007788;28;20062;-64
2023/07/24 05:58:46;;;;;;;5.38;4.22;;;;;;;;;;4992208;28;20478;-64
2023/07/24 06:01:12;;;;;;;5.40;4.85;;;;;;;;;;4992153;28;20018;-64
2023/07/24 06:03:38;;;;;;;6.07;5.25;;;;;;;;;;4992308;28;20050;-64
2023/07/24 06:06:04;;;;;;;6.88;5.20;;;;;;;;;;4975129;28;20117;-64
2023/07/24 06:08:29;;;;;;;5.22;4.57;;;;;;;;;;4992472;28;20122;-64
2023/07/24 06:10:54;;;;;;;8.70;5.00;;;;;;;;;;4992447;28;20054;-64
2023/07/24 06:13:20;;;;;;;5.53;3.55;;;;;;;;;;4994067;28;20435;-64
2023/07/24 06:15:49;;;;;;;6.47;3.90;;;;;;;;;;4993982;28;20033;-64
2023/07/24 06:18:14;;;;;;;5.15;3.90;;;;;;;;;;4994047;28;20109;-64
2023/07/24 06:20:40;;;;;;;5.70;4.18;;;;;;;;;;4994048;28;20478;-64
2023/07/24 06:23:05;;;;;;;4.30;3.90;;;;;;;;;;4994253;28;20041;-64
2023/07/24 06:25:32;;;;;;;5.13;4.22;;;;;;;;;;4993981;28;20034;-64
2023/07/24 06:27:57;;;;;;;5.25;3.92;;;;;;;;;;4976931;28;20053;-64
2023/07/24 06:30:22;;;;;;;4.38;3.83;;;;;;;;;;4993951;28;20026;-63
2023/07/24 06:32:48;;;;;;;5.78;3.65;;;;;;;;;;4993942;28;20050;-63
2023/07/24 06:35:13;;;;;;;4.63;3.80;;;;;;;;;;4994114;28;20030;-64
2023/07/24 06:37:38;;;;;;;3.38;2.95;;;;;;;;;;4993912;28;20117;-64
2023/07/24 06:40:04;;;;;;;4.22;3.55;;;;;;;;;;4993799;28;20034;-64
2023/07/24 06:42:29;;;;;;;5.70;3.95;;;;;;;;;;4994122;28;20058;-64
2023/07/24 06:44:54;;;;;;;6.07;3.70;;;;;;;;;;4994120;28;20118;-64
2023/07/24 06:47:20;;;;;;;5.43;3.80;;;;;;;;;;4996828;28;20038;-64
2023/07/24 06:49:45;;;;;;;4.45;3.40;;;;;;;;;;5013655;28;20033;-64
2023/07/24 06:52:10;;;;;;;4.57;4.05;;;;;;;;;;4997434;28;20061;-64
2023/07/24 06:54:36;;;;;;;6.68;3.97;;;;;;;;;;4997317;28;20032;-64
2023/07/24 06:57:01;;;;;;;4.63;3.75;;;;;;;;;;4997346;28;20034;-64
2023/07/24 06:59:26;;;;;;;5.55;4.18;;;;;;;;;;4997276;28;20109;-64
2023/07/24 07:01:51;;;;;;;3.95;3.55;;;;;;;;;;5012154;28;20501;-64
2023/07/24 07:04:17;;;;;;;4.20;3.80;;;;;;;;;;4997201;28;20058;-64
2023/07/24 07:06:42;;;;;;;4.45;4.05;;;;;;;;;;4997158;28;20031;-64
2023/07/24 07:09:07;;;;;;;3.95;3.50;;;;;;;;;;4997104;28;20481;-64
2023/07/24 07:11:33;;;;;;;5.32;3.95;;;;;;;;;;5012123;28;20038;-64
2023/07/24 07:13:58;;;;;;;4.90;3.78;;;;;;;;;;4997043;28;20077;-64
2023/07/24 07:16:23;;;;;;;4.20;3.55;;;;;;;;;;4996921;28;20036;-64
2023/07/24 07:18:48;;;;;;;5.05;3.50;;;;;;;;;;4997196;28;20015;-64
2023/07/24 07:21:14;;;;;;;6.43;4.18;;;;;;;;;;4997178;28;20425;-64
2023/07/24 07:23:39;;;;;;;4.18;3.58;;;;;;;;;;4997152;28;20113;-64
2023/07/24 07:26:06;;;;;;;4.85;3.67;;;;;;;;;;4996806;28;20038;-64
2023/07/24 07:28:31;;;;;;;3.58;3.33;;;;;;;;;;5011879;28;20041;-64
2023/07/24 07:30:57;;;;;;;3.70;3.08;;;;;;;;;;4996654;28;20026;-64
2023/07/24 07:33:22;;;;;;;3.88;3.53;;;;;;;;;;5011781;28;20088;-64
2023/07/24 07:35:47;;;;;;;3.95;3.17;;;;;;;;;;4996918;28;20022;-64
2023/07/24 07:38:13;;;;;;;4.72;4.32;;;;;;;;;;4996577;28;20457;-64
2023/07/24 07:40:39;;;;;;;5.95;4.05;;;;;;;;;;5011584;28;20042;-64
2023/07/24 07:43:04;;;;;;;4.32;3.38;;;;;;;;;;4996781;28;20057;-64
2023/07/24 07:45:30;;;;;;;3.65;3.10;;;;;;;;;;4962820;28;20551;-63
2023/07/24 07:47:55;;;;;;;4.13;3.67;;;;;;;;;;4996713;28;20070;-63
2023/07/24 07:50:20;;;;;;;4.65;3.75;;;;;;;;;;5011452;28;20037;-63
2023/07/24 07:52:48;;;;;;;4.95;3.63;;;;;;;;;;4996339;28;20398;-64
2023/07/24 07:55:14;;;;;;;5.32;3.83;;;;;;;;;;4996215;28;20608;-64
2023/07/24 07:57:39;;;;;;;3.97;3.65;;;;;;;;;;4995758;28;20069;-64
2023/07/24 08:00:08;;;;;;;5.15;3.78;;;;;;;;;;5011236;28;20121;-64
2023/07/24 08:02:34;;;;;;;4.50;3.85;;;;;;;;;;4996129;28;20057;-64
2023/07/24 08:04:59;;;;;;;3.72;3.42;;;;;;;;;;4996413;28;20113;-63
2023/07/24 08:07:24;;;;;;;4.45;3.83;;;;;;;;;;4996351;28;20077;-64
2023/07/24 08:09:50;;;;;;;3.92;3.42;;;;;;;;;;4996318;28;20094;-64
2023/07/24 08:12:16;;;;;;;4.90;3.85;;;;;;;;;;4978532;28;20038;-64
2023/07/24 08:14:41;;;;;;;5.85;3.95;;;;;;;;;;4996129;28;20054;-64
2023/07/24 08:17:06;;;;;;;3.90;3.58;;;;;;;;;;4996146;28;20034;-64
2023/07/24 08:19:32;;;;;;;8.60;4.05;;;;;;;;;;4996113;28;20054;-64
2023/07/24 08:21:57;;;;;;;4.30;3.83;;;;;;;;;;4996080;28;20069;-64
2023/07/24 08:24:22;;;;;;;4.93;3.90;;;;;;;;;;4995999;28;20026;-64
2023/07/24 08:26:48;;;;;;;3.78;3.47;;;;;;;;;;4995694;28;20522;-64
2023/07/24 08:29:13;;;;;;;3.95;3.53;;;;;;;;;;4978838;28;20019;-63
2023/07/24 08:31:39;;;;;;;4.70;3.70;;;;;;;;;;4995614;28;20390;-63
2023/07/24 08:34:04;;;;;;;3.13;2.85;;;;;;;;;;4995830;28;20077;-64
2023/07/24 08:36:29;;;;;;;6.93;3.67;;;;;;;;;;4995423;28;20044;-64
2023/07/24 08:38:54;;;;;;;4.30;3.65;;;;;;;;;;4996018;28;20076;-64
2023/07/24 08:41:20;;;;;;;4.47;4.07;;;;;;;;;;4995390;28;20085;-64
2023/07/24 08:43:45;;;;;;;4.07;3.70;;;;;;;;;;4995370;28;20459;-64
2023/07/24 08:46:11;;;;;;;3.60;3.30;;;;;;;;;;4995352;28;20030;-64
2023/07/24 08:48:37;;;;;;;5.32;3.80;;;;;;;;;;4995263;28;20104;-64
2023/07/24 08:51:03;;;;;;;5.90;3.95;;;;;;;;;;4995219;28;20370;-64
2023/07/24 08:53:29;;;;;;;5.93;4.40;;;;;;;;;;4995140;28;20014;-64
2023/07/24 08:55:56;;;;;;;3.47;3.00;;;;;;;;;;4995052;28;20091;-64
2023/07/24 08:58:21;;;;;;;4.30;3.17;;;;;;;;;;4995375;28;20401;-64
2023/07/24 09:00:46;;;;;;;6.22;4.32;;;;;;;;;;4995063;28;20026;-64
2023/07/24 09:03:12;;;;;;;6.15;4.05;;;;;;;;;;4994927;28;20038;-64
2023/07/24 09:05:37;;;;;;;4.40;3.92;;;;;;;;;;4977672;28;20033;-64
2023/07/24 09:08:02;;;;;;;4.97;4.05;;;;;;;;;;4994456;28;20026;-64
2023/07/24 09:10:28;;;;;;;5.43;3.75;;;;;;;;;;4961097;28;20363;-64
2023/07/24 09:12:54;;;;;;;4.45;4.03;;;;;;;;;;4995109;28;20041;-64
2023/07/24 09:15:19;;;;;;;4.60;3.92;;;;;;;;;;4994741;28;20062;-64
2023/07/24 09:17:51;;;;;;;4.88;3.75;;;;;;;;;;4995031;28;20080;-64
2023/07/24 09:20:17;;;;;;;4.55;3.90;;;;;;;;;;4994718;28;20030;-64
2023/07/24 09:22:49;;;;;;;3.95;3.30;;;;;;;;;;4994674;28;20022;-64
2023/07/24 09:25:15;;;;;;;7.05;3.53;;;;;;;;;;4994930;28;20462;-64
2023/07/24 09:27:40;;;;;;;6.07;4.15;;;;;;;;;;4994646;28;20041;-64
2023/07/24 09:30:12;;;;;;;4.50;4.00;;;;;;;;;;4994579;28;20018;-64
2023/07/24 09:32:38;;;;;;;4.22;3.78;;;;;;;;;;4994822;28;20030;-64
2023/07/24 09:35:03;;;;;;;5.30;3.83;;;;;;;;;;4994427;28;20458;-64
2023/07/24 09:37:34;;;;;;;5.68;4.07;;;;;;;;;;4995059;28;20062;-64
2023/07/24 09:40:03;;;;;;;5.00;3.80;;;;;;;;;;4994716;28;20030;-64
2023/07/24 09:42:30;;;;;;;5.68;4.20;;;;;;;;;;4994414;28;20026;-64
2023/07/24 09:44:55;;;;;;;4.88;4.07;;;;;;;;;;4994920;28;20030;-64
2023/07/24 09:47:21;;;;;;;3.90;3.50;;;;;;;;;;4994898;28;20035;-64
2023/07/24 09:49:47;;;;;;;4.38;2.97;;;;;;;;;;4976961;28;20502;-64
2023/07/24 09:52:13;;;;;;;4.72;3.92;;;;;;;;;;4994283;28;20060;-64
2023/07/24 09:54:46;;;;;;;4.90;4.28;;;;;;;;;;4976795;28;20034;-64
2023/07/24 09:57:13;;;;;;;4.95;3.97;;;;;;;;;;4976970;28;20034;-64
2023/07/24 09:59:38;;;;;;;4.72;3.33;;;;;;;;;;4994212;28;20046;-64
2023/07/24 10:02:04;;;;;;;4.55;3.85;;;;;;;;;;4994212;28;20051;-64
2023/07/24 10:04:31;;;;;;;3.58;2.47;;;;;;;;;;4994151;28;20121;-64
2023/07/24 10:06:57;;;;;;;9.27;4.70;;;;;;;;;;4994198;28;20121;-64
2023/07/24 10:09:23;;;;;;;6.20;4.05;;;;;;;;;;4994131;28;20482;-64
2023/07/24 10:11:49;;;;;;;3.03;2.13;;;;;;;;;;4994371;28;20018;-64
2023/07/24 10:14:14;;;;;;;5.90;4.00;;;;;;;;;;4994085;28;20141;-64
2023/07/24 10:16:40;;;;;;;5.97;4.50;;;;;;;;;;4976948;28;20034;-64
2023/07/24 10:19:15;;;;;;;4.88;4.38;;;;;;;;;;5009129;28;20027;-64
2023/07/24 10:21:45;;;;;;;6.18;4.68;;;;;;;;;;5013759;28;20351;-64
2023/07/24 10:24:10;;;;;;;6.40;4.73;;;;;;;;;;4998002;28;20035;-64
2023/07/24 10:26:36;;;;;;;5.45;4.32;;;;;;;;;;4997919;28;20022;-64
2023/07/24 10:29:02;;;;;;;5.65;4.25;;;;;;;;;;4998169;28;20064;-64
2023/07/24 10:31:28;;;;;;;5.57;3.78;;;;;;;;;;4997841;28;20474;-64
2023/07/24 10:33:53;;;;;;;6.80;4.32;;;;;;;;;;4997776;28;20080;-64
2023/07/24 10:36:20;;;;;;;8.00;4.15;;;;;;;;;;4997974;28;20084;-64
2023/07/24 10:38:46;;;;;;;7.38;4.57;;;;;;;;;;4997705;28;20030;-64
2023/07/24 10:41:11;;;;;;;5.47;4.30;;;;;;;;;;4997962;28;20034;-64
2023/07/24 10:43:44;;;;;;;6.40;4.97;;;;;;;;;;4997624;28;20023;-64
2023/07/24 10:46:09;;;;;;;6.20;4.80;;;;;;;;;;5012566;28;20045;-64
2023/07/24 10:48:35;;;;;;;6.45;4.28;;;;;;;;;;4997759;28;20034;-64
2023/07/24 10:51:05;;;;;;;5.97;4.82;;;;;;;;;;5012601;28;20028;-64
2023/07/24 10:53:30;;;;;;;5.47;4.38;;;;;;;;;;4997428;28;20038;-64
2023/07/24 10:55:56;;;;;;;7.20;5.10;;;;;;;;;;4997322;28;20477;-64
2023/07/24 10:58:24;;;;;;;4.25;3.85;;;;;;;;;;4997632;28;20096;-64
2023/07/24 11:00:49;;;;;;;6.05;4.50;;;;;;;;;;4997323;28;20031;-64
2023/07/24 11:03:15;;;;;;;7.45;4.60;;;;;;;;;;4997077;28;20039;-64
2023/07/24 11:05:41;;;;;;;5.45;4.13;;;;;;;;;;4997232;28;20030;-64
2023/07/24 11:08:09;;;;;;;5.43;4.43;;;;;;;;;;4997447;28;20057;-64
2023/07/24 11:10:35;;;;;;;6.65;4.70;;;;;;;;;;4997381;28;20096;-64
2023/07/24 11:13:00;;;;;;;6.25;4.60;;;;;;;;;;5012079;28;20124;-64
2023/07/24 11:15:26;;;;;;;5.53;4.18;;;;;;;;;;4979597;28;20034;-64
2023/07/24 11:17:52;;;;;;;6.57;4.70;;;;;;;;;;4997524;28;20364;-64
2023/07/24 11:20:17;;;;;;;7.65;4.30;;;;;;;;;;4996978;28;20023;-64
2023/07/24 11:22:43;;;;;;;6.28;5.07;;;;;;;;;;4997457;28;20034;-64
2023/07/24 11:25:09;;;;;;;6.50;4.75;;;;;;;;;;4997460;28;20041;-64
2023/07/24 11:27:43;;;;;;;7.15;5.13;;;;;;;;;;4997103;28;20382;-64
2023/07/24 11:30:09;;;;;;;6.78;4.75;;;;;;;;;;4997067;28;20040;-64
2023/07/24 11:32:34;;;;;;;5.60;4.88;;;;;;;;;;4996112;28;20034;-64
2023/07/24 11:35:00;;;;;;;6.05;4.88;;;;;;;;;;4996665;28;20037;-64
2023/07/24 11:37:25;;;;;;;6.45;4.95;;;;;;;;;;4996653;28;20433;-64
2023/07/24 11:40:10;;;;;;;7.15;5.28;;;;;;;;;;4996640;28;20027;-64
2023/07/24 11:42:44;;;;;;;5.30;4.55;;;;;;;;;;4979044;28;20375;-64
2023/07/24 11:45:10;;;;;;;7.40;5.30;;;;;;;;;;5011610;28;20034;-64
2023/07/24 11:47:48;;;;;;;5.03;4.60;;;;;;;;;;4996471;28;20022;-64
2023/07/24 11:50:14;;;;;;;6.10;5.07;;;;;;;;;;4996313;28;20125;-64
2023/07/24 11:52:43;;;;;;;6.07;4.40;;;;;;;;;;4996664;28;20061;-64
2023/07/24 11:55:08;;;;;;;7.65;4.78;;;;;;;;;;4996787;28;20466;-64
2023/07/24 11:57:34;;;;;;;6.75;5.07;;;;;;;;;;4978831;28;20077;-64
2023/07/24 11:59:59;;;;;;;7.28;4.65;;;;;;;;;;4996781;28;20030;-64
2023/07/24 12:02:28;;;;;;;8.85;5.25;;;;;;;;;;4996310;28;20046;-64
2023/07/24 12:04:57;;;;;;;9.00;5.53;;;;;;;;;;4979071;28;20042;-64
2023/07/24 12:07:28;;;;;;;7.85;5.63;;;;;;;;;;4996376;28;20408;-64
2023/07/24 12:09:53;;;;;;;6.35;5.05;;;;;;;;;;4996066;28;20454;-64
2023/07/24 12:12:20;;;;;;;7.88;5.57;;;;;;;;;;4995980;28;20033;-64
2023/07/24 12:14:45;;;;;;;6.18;4.72;;;;;;;;;;4996162;28;20466;-64
2023/07/24 12:17:14;;;;;;;10.73;5.43;;;;;;;;;;4996203;28;20037;-64
2023/07/24 12:19:40;;;;;;;6.82;5.15;;;;;;;;;;4995862;28;20045;-64
2023/07/24 12:22:05;;;;;;;6.38;5.45;;;;;;;;;;4996111;28;20022;-64
2023/07/24 12:24:31;;;;;;;7.10;5.35;;;;;;;;;;4996064;28;20026;-64
2023/07/24 12:26:57;;;;;;;9.05;5.15;;;;;;;;;;4995744;28;20038;-64
2023/07/24 12:29:22;;;;;;;8.98;5.97;;;;;;;;;;4995950;28;20041;-64
2023/07/24 12:31:47;;;;;;;7.43;5.70;;;;;;;;;;4995618;28;20026;-64
2023/07/24 12:34:13;;;;;;;9.30;5.68;;;;;;;;;;4995848;28;20022;-64
2023/07/24 12:36:38;;;;;;;7.80;5.75;;;;;;;;;;4995762;28;20018;-64
2023/07/24 12:39:03;;;;;;;8.60;6.10;;;;;;;;;;4995755;28;20033;-64
2023/07/24 12:41:29;;;;;;;9.50;5.55;;;;;;;;;;4995441;28;20034;-64
2023/07/24 12:43:54;;;;;;;8.93;5.53;;;;;;;;;;4995306;28;20029;-64
2023/07/24 12:46:19;;;;;;;9.30;6.03;;;;;;;;;;5010371;28;20069;-64
2023/07/24 12:48:44;;;;;;;7.97;5.55;;;;;;;;;;4995838;28;20022;-64
2023/07/24 12:51:10;;;;;;;9.77;5.25;;;;;;;;;;4995523;28;20026;-64
2023/07/24 12:53:35;;;;;;;7.25;5.32;;;;;;;;;;4995182;28;20038;-64
2023/07/24 12:56:00;;;;;;;8.02;5.55;;;;;;;;;;4995364;28;20065;-64
2023/07/24 12:58:25;;;;;;;6.47;5.68;;;;;;;;;;4995105;28;20022;-64
2023/07/24 13:00:51;;;;;;;7.82;5.53;;;;;;;;;;4995107;28;20385;-64
2023/07/24 13:03:16;;;;;;;6.40;5.03;;;;;;;;;;4994594;28;20497;-64
2023/07/24 13:05:42;;;;;;;7.20;5.38;;;;;;;;;;4995268;28;20071;-64
2023/07/24 13:08:07;;;;;;;10.25;5.63;;;;;;;;;;4995224;28;20092;-64
2023/07/24 13:10:32;;;;;;;7.50;5.20;;;;;;;;;;5009928;28;20034;-64
2023/07/24 13:12:58;;;;;;;5.35;4.60;;;;;;;;;;4986221;28;20465;-65
2023/07/24 13:15:23;;;;;;;6.03;4.82;;;;;;;;;;4984491;28;20064;-65
2023/07/24 13:17:48;;;;;;;5.88;3.72;;;;;;;;;;4983919;28;20514;-65
2023/07/24 13:20:13;;;;;;;8.38;5.80;;;;;;;;;;4984108;28;20014;-65
2023/07/24 13:22:39;;;;;;;8.68;6.32;;;;;;;;;;4985357;28;20508;-65
2023/07/24 13:25:04;;;;;;;7.32;5.35;;;;;;;;;;4985311;28;20034;-65
2023/07/24 13:27:29;;;;;;;7.22;5.15;;;;;;;;;;4984019;28;20022;-65
2023/07/24 13:29:55;;;;;;;9.05;6.43;;;;;;;;;;4998609;28;20049;-65
2023/07/24 13:32:20;;;;;;;7.82;5.63;;;;;;;;;;4985171;28;20101;-65
2023/07/24 13:34:47;;;;;;;9.77;6.05;;;;;;;;;;4988851;28;20026;-65
2023/07/24 13:37:12;;;;;;;8.30;5.78;;;;;;;;;;4969646;28;20363;-64
2023/07/24 13:39:38;;;;;;;9.23;6.15;;;;;;;;;;4983098;28;20110;-64
2023/07/24 13:42:03;;;;;;;6.95;5.80;;;;;;;;;;4978768;28;20447;-64
2023/07/24 13:44:28;;;;;;;8.63;6.22;;;;;;;;;;4979236;28;20117;-64
2023/07/24 13:46:56;;;;;;;5.72;5.13;;;;;;;;;;4987821;28;20057;-63
2023/07/24 13:49:21;;;;;;;6.50;5.47;;;;;;;;;;4983676;28;20462;-66
2023/07/24 13:51:46;;;;;;;10.35;6.38;;;;;;;;;;4993327;28;20113;-65
2023/07/24 13:54:12;;;;;;;6.68;4.88;;;;;;;;;;4993587;28;20031;-65
2023/07/24 13:56:38;;;;;;;9.23;5.47;;;;;;;;;;4993626;28;20366;-65
2023/07/24 13:59:03;;;;;;;7.10;5.88;;;;;;;;;;4993795;28;20026;-64
2023/07/24 14:01:29;;;;;;;7.15;5.10;;;;;;;;;;4976158;28;20042;-64
2023/07/24 14:03:54;;;;;;;7.80;5.40;;;;;;;;;;4993941;28;20026;-64
2023/07/24 14:06:19;;;;;;;10.13;6.50;;;;;;;;;;4993926;28;20030;-65
2023/07/24 14:08:45;;;;;;;7.85;5.65;;;;;;;;;;4993723;28;20038;-65
2023/07/24 14:11:10;;;;;;;10.27;6.22;;;;;;;;;;4976481;28;20038;-64
2023/07/24 14:13:35;;;;;;;8.35;6.43;;;;;;;;;;4993755;28;20027;-64
2023/07/24 14:16:01;;;;;;;7.15;5.97;;;;;;;;;;4993776;28;20592;-64
2023/07/24 14:18:26;;;;;;;7.35;5.53;;;;;;;;;;4993694;28;20034;-64
2023/07/24 14:20:54;;;;;;;7.70;6.07;;;;;;;;;;4993767;28;20039;-64
2023/07/24 14:23:20;;;;;;;7.28;6.00;;;;;;;;;;4993175;28;20022;-64
2023/07/24 14:25:45;;;;;;;8.30;6.68;;;;;;;;;;4960181;28;20088;-64
2023/07/24 14:28:11;;;;;;;8.07;6.60;;;;;;;;;;4993428;28;20343;-64
2023/07/24 14:30:36;;;;;;;8.90;6.97;;;;;;;;;;4993248;28;20039;-64
2023/07/24 14:33:01;;;;;;;8.75;6.47;;;;;;;;;;4993107;28;20042;-64
2023/07/24 14:35:27;;;;;;;9.77;7.10;;;;;;;;;;4975770;28;20450;-64